sensor_id;sensor_type;location;lat;lon;timestamp;P1;durP1;ratioP1;P2;durP2;ratioP2
77866;SDS011;67271;59.120;37.970;2023-08-12T00:03:19;11.10;;;6.50;;
77866;SDS011;67271;59.120;37.970;2023-08-12T00:05:45;11.15;;;7.45;;
77866;SDS011;67271;59.120;37.970;2023-08-12T00:08:11;11.38;;;7.15;;
77866;SDS011;67271;59.120;37.970;2023-08-12T00:10:37;14.57;;;8.75;;
77866;SDS011;67271;59.120;37.970;2023-08-12T00:13:03;10.73;;;6.50;;
77866;SDS011;67271;59.120;37.970;2023-08-12T00:15:29;10.55;;;6.75;;
77866;SDS011;67271;59.120;37.970;2023-08-12T00:17:55;9.25;;;6.50;;
77866;SDS011;67271;59.120;37.970;2023-08-12T00:20:21;10.13;;;7.22;;
77866;SDS011;67271;59.120;37.970;2023-08-12T00:22:47;9.95;;;6.47;;
77866;SDS011;67271;59.120;37.970;2023-08-12T00:25:13;10.20;;;6.60;;
77866;SDS011;67271;59.120;37.970;2023-08-12T00:27:39;13.23;;;7.32;;
77866;SDS011;67271;59.120;37.970;2023-08-12T00:30:05;10.35;;;6.65;;
77866;SDS011;67271;59.120;37.970;2023-08-12T00:32:34;9.95;;;6.35;;
77866;SDS011;67271;59.120;37.970;2023-08-12T00:35:00;11.23;;;6.90;;
77866;SDS011;67271;59.120;37.970;2023-08-12T00:37:26;17.90;;;6.70;;
77866;SDS011;67271;59.120;37.970;2023-08-12T00:39:52;10.30;;;6.43;;
77866;SDS011;67271;59.120;37.970;2023-08-12T00:42:19;8.65;;;6.60;;
77866;SDS011;67271;59.120;37.970;2023-08-12T00:44:48;10.02;;;6.63;;
77866;SDS011;67271;59.120;37.970;2023-08-12T00:47:13;10.63;;;6.97;;
77866;SDS011;67271;59.120;37.970;2023-08-12T00:49:41;13.73;;;6.88;;
77866;SDS011;67271;59.120;37.970;2023-08-12T00:52:13;10.25;;;7.03;;
77866;SDS011;67271;59.120;37.970;2023-08-12T00:54:40;8.27;;;6.43;;
77866;SDS011;67271;59.120;37.970;2023-08-12T00:57:07;9.77;;;7.18;;
77866;SDS011;67271;59.120;37.970;2023-08-12T00:59:37;12.13;;;6.60;;
77866;SDS011;67271;59.120;37.970;2023-08-12T01:02:04;10.57;;;7.55;;
77866;SDS011;67271;59.120;37.970;2023-08-12T01:04:30;11.73;;;6.78;;
77866;SDS011;67271;59.120;37.970;2023-08-12T01:06:56;8.85;;;6.57;;
77866;SDS011;67271;59.120;37.970;2023-08-12T01:09:22;11.80;;;6.85;;
77866;SDS011;67271;59.120;37.970;2023-08-12T01:11:57;8.38;;;6.30;;
77866;SDS011;67271;59.120;37.970;2023-08-12T01:14:45;13.73;;;7.22;;
77866;SDS011;67271;59.120;37.970;2023-08-12T01:17:16;11.05;;;7.68;;
77866;SDS011;67271;59.120;37.970;2023-08-12T01:19:43;10.40;;;6.80;;
77866;SDS011;67271;59.120;37.970;2023-08-12T01:22:10;10.05;;;6.82;;
77866;SDS011;67271;59.120;37.970;2023-08-12T01:24:38;10.00;;;6.70;;
77866;SDS011;67271;59.120;37.970;2023-08-12T01:27:05;13.57;;;6.28;;
77866;SDS011;67271;59.120;37.970;2023-08-12T01:29:33;10.50;;;6.95;;
77866;SDS011;67271;59.120;37.970;2023-08-12T01:35:05;11.68;;;6.80;;
77866;SDS011;67271;59.120;37.970;2023-08-12T01:37:41;9.85;;;6.60;;
77866;SDS011;67271;59.120;37.970;2023-08-12T01:40:08;12.15;;;6.63;;
77866;SDS011;67271;59.120;37.970;2023-08-12T01:42:35;12.55;;;6.57;;
77866;SDS011;67271;59.120;37.970;2023-08-12T01:45:02;9.95;;;6.63;;
77866;SDS011;67271;59.120;37.970;2023-08-12T01:47:29;11.85;;;7.20;;
77866;SDS011;67271;59.120;37.970;2023-08-12T01:49:55;11.93;;;6.97;;
77866;SDS011;67271;59.120;37.970;2023-08-12T01:52:23;9.60;;;6.72;;
77866;SDS011;67271;59.120;37.970;2023-08-12T01:54:49;10.85;;;6.57;;
77866;SDS011;67271;59.120;37.970;2023-08-12T01:57:15;12.05;;;7.72;;
77866;SDS011;67271;59.120;37.970;2023-08-12T01:59:41;13.02;;;6.68;;
77866;SDS011;67271;59.120;37.970;2023-08-12T02:02:10;8.68;;;6.30;;
77866;SDS011;67271;59.120;37.970;2023-08-12T02:04:36;10.30;;;7.32;;
77866;SDS011;67271;59.120;37.970;2023-08-12T02:07:03;9.38;;;6.47;;
77866;SDS011;67271;59.120;37.970;2023-08-12T02:09:29;12.98;;;7.00;;
77866;SDS011;67271;59.120;37.970;2023-08-12T02:11:56;14.15;;;6.43;;
77866;SDS011;67271;59.120;37.970;2023-08-12T02:14:22;12.07;;;7.15;;
77866;SDS011;67271;59.120;37.970;2023-08-12T02:16:48;10.30;;;7.03;;
77866;SDS011;67271;59.120;37.970;2023-08-12T02:19:14;10.15;;;7.15;;
77866;SDS011;67271;59.120;37.970;2023-08-12T02:21:40;11.35;;;7.85;;
77866;SDS011;67271;59.120;37.970;2023-08-12T02:24:07;10.43;;;7.18;;
77866;SDS011;67271;59.120;37.970;2023-08-12T02:26:33;9.23;;;6.50;;
77866;SDS011;67271;59.120;37.970;2023-08-12T02:28:59;11.65;;;7.60;;
77866;SDS011;67271;59.120;37.970;2023-08-12T02:31:25;12.00;;;7.68;;
77866;SDS011;67271;59.120;37.970;2023-08-12T02:33:54;10.50;;;7.20;;
77866;SDS011;67271;59.120;37.970;2023-08-12T02:36:20;13.82;;;8.07;;
77866;SDS011;67271;59.120;37.970;2023-08-12T02:38:46;14.32;;;7.43;;
77866;SDS011;67271;59.120;37.970;2023-08-12T02:41:11;10.15;;;7.43;;
77866;SDS011;67271;59.120;37.970;2023-08-12T02:43:37;11.85;;;7.70;;
77866;SDS011;67271;59.120;37.970;2023-08-12T02:46:03;17.58;;;7.43;;
77866;SDS011;67271;59.120;37.970;2023-08-12T02:48:29;11.43;;;8.07;;
77866;SDS011;67271;59.120;37.970;2023-08-12T02:50:55;10.48;;;7.68;;
77866;SDS011;67271;59.120;37.970;2023-08-12T02:53:21;12.32;;;7.45;;
77866;SDS011;67271;59.120;37.970;2023-08-12T02:55:47;14.90;;;7.68;;
77866;SDS011;67271;59.120;37.970;2023-08-12T02:58:13;14.05;;;8.10;;
77866;SDS011;67271;59.120;37.970;2023-08-12T03:00:42;11.68;;;8.25;;
77866;SDS011;67271;59.120;37.970;2023-08-12T03:03:11;11.80;;;7.68;;
77866;SDS011;67271;59.120;37.970;2023-08-12T03:05:37;11.00;;;7.80;;
77866;SDS011;67271;59.120;37.970;2023-08-12T03:08:04;10.40;;;7.57;;
77866;SDS011;67271;59.120;37.970;2023-08-12T03:10:32;15.52;;;7.43;;
77866;SDS011;67271;59.120;37.970;2023-08-12T03:12:59;12.43;;;7.63;;
77866;SDS011;67271;59.120;37.970;2023-08-12T03:15:25;12.30;;;8.25;;
77866;SDS011;67271;59.120;37.970;2023-08-12T03:17:51;13.52;;;7.32;;
77866;SDS011;67271;59.120;37.970;2023-08-12T03:20:17;11.07;;;7.60;;
77866;SDS011;67271;59.120;37.970;2023-08-12T03:22:44;12.88;;;7.93;;
77866;SDS011;67271;59.120;37.970;2023-08-12T03:25:09;10.88;;;7.22;;
77866;SDS011;67271;59.120;37.970;2023-08-12T03:27:36;14.52;;;7.63;;
77866;SDS011;67271;59.120;37.970;2023-08-12T03:30:03;11.57;;;7.50;;
77866;SDS011;67271;59.120;37.970;2023-08-12T03:32:31;15.48;;;9.32;;
77866;SDS011;67271;59.120;37.970;2023-08-12T03:35:01;12.27;;;7.72;;
77866;SDS011;67271;59.120;37.970;2023-08-12T03:37:27;10.70;;;6.70;;
77866;SDS011;67271;59.120;37.970;2023-08-12T03:39:53;14.73;;;7.05;;
77866;SDS011;67271;59.120;37.970;2023-08-12T03:42:19;11.07;;;6.60;;
77866;SDS011;67271;59.120;37.970;2023-08-12T03:44:46;10.90;;;6.95;;
77866;SDS011;67271;59.120;37.970;2023-08-12T03:47:12;13.65;;;7.22;;
77866;SDS011;67271;59.120;37.970;2023-08-12T03:49:38;9.02;;;6.63;;
77866;SDS011;67271;59.120;37.970;2023-08-12T03:52:04;11.55;;;6.78;;
77866;SDS011;67271;59.120;37.970;2023-08-12T03:54:33;11.68;;;7.05;;
77866;SDS011;67271;59.120;37.970;2023-08-12T03:56:59;9.38;;;6.47;;
77866;SDS011;67271;59.120;37.970;2023-08-12T03:59:26;10.70;;;6.93;;
77866;SDS011;67271;59.120;37.970;2023-08-12T04:01:52;10.95;;;6.45;;
77866;SDS011;67271;59.120;37.970;2023-08-12T04:04:20;16.50;;;6.82;;
77866;SDS011;67271;59.120;37.970;2023-08-12T04:06:46;10.13;;;7.18;;
77866;SDS011;67271;59.120;37.970;2023-08-12T04:09:14;9.13;;;6.60;;
77866;SDS011;67271;59.120;37.970;2023-08-12T04:11:40;10.48;;;6.78;;
77866;SDS011;67271;59.120;37.970;2023-08-12T04:14:07;10.52;;;6.65;;
77866;SDS011;67271;59.120;37.970;2023-08-12T04:16:33;10.23;;;6.50;;
77866;SDS011;67271;59.120;37.970;2023-08-12T04:18:59;12.75;;;6.90;;
77866;SDS011;67271;59.120;37.970;2023-08-12T04:21:25;11.73;;;6.60;;
77866;SDS011;67271;59.120;37.970;2023-08-12T04:23:51;8.05;;;6.50;;
77866;SDS011;67271;59.120;37.970;2023-08-12T04:26:17;12.77;;;7.18;;
77866;SDS011;67271;59.120;37.970;2023-08-12T04:28:43;14.23;;;7.28;;
77866;SDS011;67271;59.120;37.970;2023-08-12T04:31:09;10.05;;;7.43;;
77866;SDS011;67271;59.120;37.970;2023-08-12T04:33:38;8.98;;;6.72;;
77866;SDS011;67271;59.120;37.970;2023-08-12T04:36:04;10.10;;;7.00;;
77866;SDS011;67271;59.120;37.970;2023-08-12T04:38:30;11.45;;;6.80;;
77866;SDS011;67271;59.120;37.970;2023-08-12T04:40:58;8.35;;;6.70;;
77866;SDS011;67271;59.120;37.970;2023-08-12T04:43:25;11.18;;;6.40;;
77866;SDS011;67271;59.120;37.970;2023-08-12T04:45:51;8.15;;;6.20;;
77866;SDS011;67271;59.120;37.970;2023-08-12T04:48:19;9.57;;;6.88;;
77866;SDS011;67271;59.120;37.970;2023-08-12T04:50:45;10.15;;;6.60;;
77866;SDS011;67271;59.120;37.970;2023-08-12T04:53:10;16.60;;;7.55;;
77866;SDS011;67271;59.120;37.970;2023-08-12T04:55:36;10.77;;;6.88;;
77866;SDS011;67271;59.120;37.970;2023-08-12T04:58:04;9.05;;;6.22;;
77866;SDS011;67271;59.120;37.970;2023-08-12T05:00:30;10.98;;;6.68;;
77866;SDS011;67271;59.120;37.970;2023-08-12T05:02:58;11.05;;;6.47;;
77866;SDS011;67271;59.120;37.970;2023-08-12T05:05:25;6.70;;;5.53;;
77866;SDS011;67271;59.120;37.970;2023-08-12T05:07:52;9.63;;;6.10;;
77866;SDS011;67271;59.120;37.970;2023-08-12T05:10:21;11.30;;;7.65;;
77866;SDS011;67271;59.120;37.970;2023-08-12T05:12:47;9.45;;;6.80;;
77866;SDS011;67271;59.120;37.970;2023-08-12T05:15:14;11.27;;;8.07;;
77866;SDS011;67271;59.120;37.970;2023-08-12T05:17:41;8.80;;;6.60;;
77866;SDS011;67271;59.120;37.970;2023-08-12T05:20:09;10.00;;;6.93;;
77866;SDS011;67271;59.120;37.970;2023-08-12T05:22:36;12.15;;;6.30;;
77866;SDS011;67271;59.120;37.970;2023-08-12T05:25:02;12.07;;;6.90;;
77866;SDS011;67271;59.120;37.970;2023-08-12T05:27:28;13.18;;;7.18;;
77866;SDS011;67271;59.120;37.970;2023-08-12T05:29:54;14.07;;;6.93;;
77866;SDS011;67271;59.120;37.970;2023-08-12T05:32:19;8.95;;;6.82;;
77866;SDS011;67271;59.120;37.970;2023-08-12T05:34:45;9.27;;;6.78;;
77866;SDS011;67271;59.120;37.970;2023-08-12T05:37:11;15.07;;;7.95;;
77866;SDS011;67271;59.120;37.970;2023-08-12T05:39:37;11.15;;;7.07;;
77866;SDS011;67271;59.120;37.970;2023-08-12T05:42:03;8.30;;;6.40;;
77866;SDS011;67271;59.120;37.970;2023-08-12T05:44:29;11.43;;;6.30;;
77866;SDS011;67271;59.120;37.970;2023-08-12T05:46:55;9.25;;;6.50;;
77866;SDS011;67271;59.120;37.970;2023-08-12T05:49:21;13.15;;;6.90;;
77866;SDS011;67271;59.120;37.970;2023-08-12T05:51:50;13.18;;;6.65;;
77866;SDS011;67271;59.120;37.970;2023-08-12T05:54:15;11.35;;;7.03;;
77866;SDS011;67271;59.120;37.970;2023-08-12T05:56:41;10.40;;;7.13;;
77866;SDS011;67271;59.120;37.970;2023-08-12T05:59:07;13.18;;;7.50;;
77866;SDS011;67271;59.120;37.970;2023-08-12T06:01:33;13.63;;;7.30;;
77866;SDS011;67271;59.120;37.970;2023-08-12T06:03:59;9.07;;;6.65;;
77866;SDS011;67271;59.120;37.970;2023-08-12T06:06:25;11.23;;;7.10;;
77866;SDS011;67271;59.120;37.970;2023-08-12T06:08:51;8.73;;;6.78;;
77866;SDS011;67271;59.120;37.970;2023-08-12T06:11:17;12.00;;;6.68;;
77866;SDS011;67271;59.120;37.970;2023-08-12T06:13:42;7.90;;;6.05;;
77866;SDS011;67271;59.120;37.970;2023-08-12T06:16:08;10.85;;;6.88;;
77866;SDS011;67271;59.120;37.970;2023-08-12T06:18:34;11.15;;;6.18;;
77866;SDS011;67271;59.120;37.970;2023-08-12T06:21:00;11.45;;;6.80;;
77866;SDS011;67271;59.120;37.970;2023-08-12T06:23:26;8.60;;;6.18;;
77866;SDS011;67271;59.120;37.970;2023-08-12T06:25:52;12.48;;;6.95;;
77866;SDS011;67271;59.120;37.970;2023-08-12T06:28:18;10.70;;;5.97;;
77866;SDS011;67271;59.120;37.970;2023-08-12T06:30:44;7.78;;;5.78;;
77866;SDS011;67271;59.120;37.970;2023-08-12T06:33:13;10.63;;;6.93;;
77866;SDS011;67271;59.120;37.970;2023-08-12T06:35:40;10.05;;;6.63;;
77866;SDS011;67271;59.120;37.970;2023-08-12T06:38:06;13.40;;;6.70;;
77866;SDS011;67271;59.120;37.970;2023-08-12T06:40:35;11.68;;;7.20;;
77866;SDS011;67271;59.120;37.970;2023-08-12T06:43:02;10.48;;;6.93;;
77866;SDS011;67271;59.120;37.970;2023-08-12T06:45:28;10.63;;;6.20;;
77866;SDS011;67271;59.120;37.970;2023-08-12T06:47:54;11.00;;;6.10;;
77866;SDS011;67271;59.120;37.970;2023-08-12T06:50:19;8.32;;;6.90;;
77866;SDS011;67271;59.120;37.970;2023-08-12T06:52:45;11.00;;;6.72;;
77866;SDS011;67271;59.120;37.970;2023-08-12T06:55:11;11.40;;;6.57;;
77866;SDS011;67271;59.120;37.970;2023-08-12T06:57:37;11.35;;;6.72;;
77866;SDS011;67271;59.120;37.970;2023-08-12T07:00:03;10.40;;;7.25;;
77866;SDS011;67271;59.120;37.970;2023-08-12T07:02:30;13.63;;;7.53;;
77866;SDS011;67271;59.120;37.970;2023-08-12T07:04:56;8.80;;;6.30;;
77866;SDS011;67271;59.120;37.970;2023-08-12T07:07:22;9.93;;;6.93;;
77866;SDS011;67271;59.120;37.970;2023-08-12T07:09:48;11.57;;;6.82;;
77866;SDS011;67271;59.120;37.970;2023-08-12T07:12:14;8.90;;;6.40;;
77866;SDS011;67271;59.120;37.970;2023-08-12T07:14:40;11.52;;;7.03;;
77866;SDS011;67271;59.120;37.970;2023-08-12T07:17:06;12.85;;;6.95;;
77866;SDS011;67271;59.120;37.970;2023-08-12T07:19:31;10.80;;;6.63;;
77866;SDS011;67271;59.120;37.970;2023-08-12T07:21:57;8.82;;;6.45;;
77866;SDS011;67271;59.120;37.970;2023-08-12T07:24:23;7.47;;;5.88;;
77866;SDS011;67271;59.120;37.970;2023-08-12T07:26:49;10.55;;;5.82;;
77866;SDS011;67271;59.120;37.970;2023-08-12T07:29:15;13.10;;;7.25;;
77866;SDS011;67271;59.120;37.970;2023-08-12T07:31:41;10.52;;;6.47;;
77866;SDS011;67271;59.120;37.970;2023-08-12T07:34:06;10.38;;;6.93;;
77866;SDS011;67271;59.120;37.970;2023-08-12T07:36:32;12.45;;;6.82;;
77866;SDS011;67271;59.120;37.970;2023-08-12T07:38:58;11.80;;;6.90;;
77866;SDS011;67271;59.120;37.970;2023-08-12T07:41:24;15.48;;;7.03;;
77866;SDS011;67271;59.120;37.970;2023-08-12T07:43:52;13.30;;;6.93;;
77866;SDS011;67271;59.120;37.970;2023-08-12T07:46:19;9.07;;;6.63;;
77866;SDS011;67271;59.120;37.970;2023-08-12T07:48:44;15.15;;;7.38;;
77866;SDS011;67271;59.120;37.970;2023-08-12T07:51:13;8.52;;;6.68;;
77866;SDS011;67271;59.120;37.970;2023-08-12T07:53:39;10.32;;;7.18;;
77866;SDS011;67271;59.120;37.970;2023-08-12T07:56:04;15.70;;;7.05;;
77866;SDS011;67271;59.120;37.970;2023-08-12T07:58:30;15.93;;;6.20;;
77866;SDS011;67271;59.120;37.970;2023-08-12T08:00:56;9.85;;;6.75;;
77866;SDS011;67271;59.120;37.970;2023-08-12T08:03:22;11.32;;;6.82;;
77866;SDS011;67271;59.120;37.970;2023-08-12T08:05:48;10.70;;;7.43;;
77866;SDS011;67271;59.120;37.970;2023-08-12T08:08:14;9.40;;;6.45;;
77866;SDS011;67271;59.120;37.970;2023-08-12T08:10:40;11.00;;;6.28;;
77866;SDS011;67271;59.120;37.970;2023-08-12T08:13:06;12.30;;;6.15;;
77866;SDS011;67271;59.120;37.970;2023-08-12T08:15:32;9.85;;;6.50;;
77866;SDS011;67271;59.120;37.970;2023-08-12T08:17:58;12.75;;;6.47;;
77866;SDS011;67271;59.120;37.970;2023-08-12T08:20:24;20.40;;;6.82;;
77866;SDS011;67271;59.120;37.970;2023-08-12T08:22:49;12.05;;;5.97;;
77866;SDS011;67271;59.120;37.970;2023-08-12T08:25:15;12.45;;;7.10;;
77866;SDS011;67271;59.120;37.970;2023-08-12T08:27:41;9.18;;;6.15;;
77866;SDS011;67271;59.120;37.970;2023-08-12T08:30:08;12.80;;;6.10;;
77866;SDS011;67271;59.120;37.970;2023-08-12T08:32:34;11.63;;;6.40;;
77866;SDS011;67271;59.120;37.970;2023-08-12T08:35:00;11.05;;;6.55;;
77866;SDS011;67271;59.120;37.970;2023-08-12T08:37:26;11.98;;;6.80;;
77866;SDS011;67271;59.120;37.970;2023-08-12T08:39:52;11.45;;;6.28;;
77866;SDS011;67271;59.120;37.970;2023-08-12T08:42:18;12.32;;;6.40;;
77866;SDS011;67271;59.120;37.970;2023-08-12T08:44:46;10.40;;;6.22;;
77866;SDS011;67271;59.120;37.970;2023-08-12T08:47:18;10.68;;;6.78;;
77866;SDS011;67271;59.120;37.970;2023-08-12T08:49:47;12.65;;;7.05;;
77866;SDS011;67271;59.120;37.970;2023-08-12T08:52:14;11.77;;;6.25;;
77866;SDS011;67271;59.120;37.970;2023-08-12T08:54:41;9.13;;;6.40;;
77866;SDS011;67271;59.120;37.970;2023-08-12T08:57:07;12.77;;;7.85;;
77866;SDS011;67271;59.120;37.970;2023-08-12T08:59:34;8.65;;;6.55;;
77866;SDS011;67271;59.120;37.970;2023-08-12T09:01:59;16.40;;;6.40;;
77866;SDS011;67271;59.120;37.970;2023-08-12T09:04:26;17.80;;;6.70;;
77866;SDS011;67271;59.120;37.970;2023-08-12T09:06:52;11.18;;;6.95;;
77866;SDS011;67271;59.120;37.970;2023-08-12T09:09:19;8.88;;;6.53;;
77866;SDS011;67271;59.120;37.970;2023-08-12T09:11:46;10.32;;;6.03;;
77866;SDS011;67271;59.120;37.970;2023-08-12T09:14:14;12.52;;;5.68;;
77866;SDS011;67271;59.120;37.970;2023-08-12T09:16:48;10.20;;;6.20;;
77866;SDS011;67271;59.120;37.970;2023-08-12T09:19:14;9.73;;;6.65;;
77866;SDS011;67271;59.120;37.970;2023-08-12T09:21:40;19.13;;;7.43;;
77866;SDS011;67271;59.120;37.970;2023-08-12T09:24:07;13.25;;;6.57;;
77866;SDS011;67271;59.120;37.970;2023-08-12T09:26:33;15.05;;;6.85;;
77866;SDS011;67271;59.120;37.970;2023-08-12T09:28:59;10.32;;;6.65;;
77866;SDS011;67271;59.120;37.970;2023-08-12T09:31:29;11.88;;;6.90;;
77866;SDS011;67271;59.120;37.970;2023-08-12T09:33:59;25.38;;;8.30;;
77866;SDS011;67271;59.120;37.970;2023-08-12T09:36:29;12.38;;;6.50;;
77866;SDS011;67271;59.120;37.970;2023-08-12T09:38:56;17.20;;;7.57;;
77866;SDS011;67271;59.120;37.970;2023-08-12T09:41:26;18.75;;;7.70;;
77866;SDS011;67271;59.120;37.970;2023-08-12T09:43:55;17.63;;;7.30;;
77866;SDS011;67271;59.120;37.970;2023-08-12T09:46:22;12.35;;;6.13;;
77866;SDS011;67271;59.120;37.970;2023-08-12T09:48:51;10.57;;;6.00;;
77866;SDS011;67271;59.120;37.970;2023-08-12T09:51:20;10.63;;;6.63;;
77866;SDS011;67271;59.120;37.970;2023-08-12T09:53:49;11.25;;;6.38;;
77866;SDS011;67271;59.120;37.970;2023-08-12T09:58:48;9.10;;;6.80;;
77866;SDS011;67271;59.120;37.970;2023-08-12T10:01:18;10.40;;;6.43;;
77866;SDS011;67271;59.120;37.970;2023-08-12T10:03:48;10.15;;;6.50;;
77866;SDS011;67271;59.120;37.970;2023-08-12T10:06:16;9.50;;;6.63;;
77866;SDS011;67271;59.120;37.970;2023-08-12T10:08:43;11.98;;;6.30;;
77866;SDS011;67271;59.120;37.970;2023-08-12T10:11:11;10.05;;;6.80;;
77866;SDS011;67271;59.120;37.970;2023-08-12T10:13:37;10.02;;;6.53;;
77866;SDS011;67271;59.120;37.970;2023-08-12T10:16:05;11.32;;;6.53;;
77866;SDS011;67271;59.120;37.970;2023-08-12T10:18:31;10.57;;;6.13;;
77866;SDS011;67271;59.120;37.970;2023-08-12T10:20:58;15.23;;;7.32;;
77866;SDS011;67271;59.120;37.970;2023-08-12T10:23:26;13.05;;;6.70;;
77866;SDS011;67271;59.120;37.970;2023-08-12T10:25:53;13.65;;;6.57;;
77866;SDS011;67271;59.120;37.970;2023-08-12T10:28:20;10.70;;;6.78;;
77866;SDS011;67271;59.120;37.970;2023-08-12T10:30:46;12.63;;;6.80;;
77866;SDS011;67271;59.120;37.970;2023-08-12T10:33:14;14.77;;;7.05;;
77866;SDS011;67271;59.120;37.970;2023-08-12T10:35:44;10.02;;;7.18;;
77866;SDS011;67271;59.120;37.970;2023-08-12T10:38:18;12.77;;;8.55;;
77866;SDS011;67271;59.120;37.970;2023-08-12T10:40:45;9.20;;;6.45;;
77866;SDS011;67271;59.120;37.970;2023-08-12T10:43:12;11.88;;;7.03;;
77866;SDS011;67271;59.120;37.970;2023-08-12T10:45:42;13.50;;;6.63;;
77866;SDS011;67271;59.120;37.970;2023-08-12T10:48:16;12.05;;;7.40;;
77866;SDS011;67271;59.120;37.970;2023-08-12T10:50:45;12.85;;;7.20;;
77866;SDS011;67271;59.120;37.970;2023-08-12T10:53:27;9.65;;;6.95;;
77866;SDS011;67271;59.120;37.970;2023-08-12T10:56:02;11.00;;;6.47;;
77866;SDS011;67271;59.120;37.970;2023-08-12T10:58:40;11.43;;;6.82;;
77866;SDS011;67271;59.120;37.970;2023-08-12T11:01:15;16.98;;;7.45;;
77866;SDS011;67271;59.120;37.970;2023-08-12T11:03:43;11.95;;;7.15;;
77866;SDS011;67271;59.120;37.970;2023-08-12T11:06:10;11.52;;;6.78;;
77866;SDS011;67271;59.120;37.970;2023-08-12T11:08:36;17.38;;;7.95;;
77866;SDS011;67271;59.120;37.970;2023-08-12T11:11:21;12.25;;;6.82;;
77866;SDS011;67271;59.120;37.970;2023-08-12T11:13:55;10.57;;;7.05;;
77866;SDS011;67271;59.120;37.970;2023-08-12T11:16:58;13.18;;;7.07;;
77866;SDS011;67271;59.120;37.970;2023-08-12T11:19:18;12.20;;;6.60;;
77866;SDS011;67271;59.120;37.970;2023-08-12T11:21:45;12.07;;;6.90;;
77866;SDS011;67271;59.120;37.970;2023-08-12T11:24:11;10.88;;;7.25;;
77866;SDS011;67271;59.120;37.970;2023-08-12T11:26:38;10.43;;;6.68;;
77866;SDS011;67271;59.120;37.970;2023-08-12T11:29:08;10.55;;;7.22;;
77866;SDS011;67271;59.120;37.970;2023-08-12T11:31:35;11.75;;;7.60;;
77866;SDS011;67271;59.120;37.970;2023-08-12T11:34:01;13.13;;;7.15;;
77866;SDS011;67271;59.120;37.970;2023-08-12T11:36:28;15.50;;;7.47;;
77866;SDS011;67271;59.120;37.970;2023-08-12T11:38:56;10.32;;;7.20;;
77866;SDS011;67271;59.120;37.970;2023-08-12T11:41:22;11.57;;;7.00;;
77866;SDS011;67271;59.120;37.970;2023-08-12T11:43:48;10.45;;;6.47;;
77866;SDS011;67271;59.120;37.970;2023-08-12T11:46:15;9.02;;;6.78;;
77866;SDS011;67271;59.120;37.970;2023-08-12T11:48:43;12.88;;;7.82;;
77866;SDS011;67271;59.120;37.970;2023-08-12T11:51:09;12.23;;;6.97;;
77866;SDS011;67271;59.120;37.970;2023-08-12T11:53:35;11.88;;;7.13;;
77866;SDS011;67271;59.120;37.970;2023-08-12T11:56:01;10.70;;;7.57;;
77866;SDS011;67271;59.120;37.970;2023-08-12T11:58:31;15.80;;;7.85;;
77866;SDS011;67271;59.120;37.970;2023-08-12T12:01:01;13.63;;;8.23;;
77866;SDS011;67271;59.120;37.970;2023-08-12T12:03:28;13.23;;;7.28;;
77866;SDS011;67271;59.120;37.970;2023-08-12T12:05:57;13.07;;;7.93;;
77866;SDS011;67271;59.120;37.970;2023-08-12T12:08:22;14.38;;;7.85;;
77866;SDS011;67271;59.120;37.970;2023-08-12T12:10:48;16.60;;;7.45;;
77866;SDS011;67271;59.120;37.970;2023-08-12T12:13:14;12.52;;;7.65;;
77866;SDS011;67271;59.120;37.970;2023-08-12T12:15:43;12.30;;;7.15;;
77866;SDS011;67271;59.120;37.970;2023-08-12T12:18:12;13.18;;;7.72;;
77866;SDS011;67271;59.120;37.970;2023-08-12T12:20:57;12.25;;;6.65;;
77866;SDS011;67271;59.120;37.970;2023-08-12T12:26:00;9.60;;;6.75;;
77866;SDS011;67271;59.120;37.970;2023-08-12T12:28:27;13.98;;;7.32;;
77866;SDS011;67271;59.120;37.970;2023-08-12T12:30:53;16.48;;;7.40;;
77866;SDS011;67271;59.120;37.970;2023-08-12T12:33:19;17.50;;;7.60;;
77866;SDS011;67271;59.120;37.970;2023-08-12T12:35:45;16.70;;;7.93;;
77866;SDS011;67271;59.120;37.970;2023-08-12T12:38:11;11.27;;;6.85;;
77866;SDS011;67271;59.120;37.970;2023-08-12T12:40:37;11.68;;;7.20;;
77866;SDS011;67271;59.120;37.970;2023-08-12T12:43:06;12.52;;;7.78;;
77866;SDS011;67271;59.120;37.970;2023-08-12T12:45:31;11.98;;;8.30;;
77866;SDS011;67271;59.120;37.970;2023-08-12T12:47:57;11.63;;;7.78;;
77866;SDS011;67271;59.120;37.970;2023-08-12T12:50:23;9.35;;;6.90;;
77866;SDS011;67271;59.120;37.970;2023-08-12T12:52:49;12.50;;;7.95;;
77866;SDS011;67271;59.120;37.970;2023-08-12T12:55:15;13.73;;;7.75;;
77866;SDS011;67271;59.120;37.970;2023-08-12T12:57:42;21.95;;;8.50;;
77866;SDS011;67271;59.120;37.970;2023-08-12T13:00:08;13.98;;;8.05;;
77866;SDS011;67271;59.120;37.970;2023-08-12T13:02:37;20.65;;;7.70;;
77866;SDS011;67271;59.120;37.970;2023-08-12T13:05:03;10.88;;;7.93;;
77866;SDS011;67271;59.120;37.970;2023-08-12T13:07:29;11.60;;;8.35;;
77866;SDS011;67271;59.120;37.970;2023-08-12T13:09:56;12.35;;;7.85;;
77866;SDS011;67271;59.120;37.970;2023-08-12T13:12:22;12.88;;;7.47;;
77866;SDS011;67271;59.120;37.970;2023-08-12T13:14:48;13.85;;;8.50;;
77866;SDS011;67271;59.120;37.970;2023-08-12T13:17:14;12.10;;;7.72;;
77866;SDS011;67271;59.120;37.970;2023-08-12T13:19:40;13.07;;;8.75;;
77866;SDS011;67271;59.120;37.970;2023-08-12T13:22:06;14.38;;;8.25;;
77866;SDS011;67271;59.120;37.970;2023-08-12T13:24:32;10.90;;;7.75;;
77866;SDS011;67271;59.120;37.970;2023-08-12T13:26:57;13.45;;;8.13;;
77866;SDS011;67271;59.120;37.970;2023-08-12T13:29:23;11.60;;;7.97;;
77866;SDS011;67271;59.120;37.970;2023-08-12T13:31:51;12.32;;;8.18;;
77866;SDS011;67271;59.120;37.970;2023-08-12T13:34:17;16.48;;;8.07;;
77866;SDS011;67271;59.120;37.970;2023-08-12T13:36:43;13.40;;;8.00;;
77866;SDS011;67271;59.120;37.970;2023-08-12T13:39:09;16.90;;;8.85;;
77866;SDS011;67271;59.120;37.970;2023-08-12T13:41:34;13.15;;;8.10;;
77866;SDS011;67271;59.120;37.970;2023-08-12T13:44:00;12.00;;;8.30;;
77866;SDS011;67271;59.120;37.970;2023-08-12T13:46:26;16.40;;;8.35;;
77866;SDS011;67271;59.120;37.970;2023-08-12T13:48:52;16.70;;;8.73;;
77866;SDS011;67271;59.120;37.970;2023-08-12T13:51:18;13.00;;;8.55;;
77866;SDS011;67271;59.120;37.970;2023-08-12T13:53:44;13.68;;;8.68;;
77866;SDS011;67271;59.120;37.970;2023-08-12T13:56:10;13.77;;;8.93;;
77866;SDS011;67271;59.120;37.970;2023-08-12T13:58:36;16.00;;;8.73;;
77866;SDS011;67271;59.120;37.970;2023-08-12T14:01:02;17.67;;;8.63;;
77866;SDS011;67271;59.120;37.970;2023-08-12T14:03:28;12.77;;;8.73;;
77866;SDS011;67271;59.120;37.970;2023-08-12T14:05:55;19.15;;;9.30;;
77866;SDS011;67271;59.120;37.970;2023-08-12T14:08:24;15.18;;;8.85;;
77866;SDS011;67271;59.120;37.970;2023-08-12T14:10:51;14.57;;;9.25;;
77866;SDS011;67271;59.120;37.970;2023-08-12T14:13:17;13.52;;;8.68;;
77866;SDS011;67271;59.120;37.970;2023-08-12T14:15:43;19.33;;;10.45;;
77866;SDS011;67271;59.120;37.970;2023-08-12T14:18:09;14.75;;;8.13;;
77866;SDS011;67271;59.120;37.970;2023-08-12T14:20:37;13.52;;;8.23;;
77866;SDS011;67271;59.120;37.970;2023-08-12T14:23:03;12.50;;;8.60;;
77866;SDS011;67271;59.120;37.970;2023-08-12T14:25:29;13.55;;;9.43;;
77866;SDS011;67271;59.120;37.970;2023-08-12T14:27:55;13.02;;;8.75;;
77866;SDS011;67271;59.120;37.970;2023-08-12T14:30:23;16.15;;;8.38;;
77866;SDS011;67271;59.120;37.970;2023-08-12T14:32:51;14.82;;;8.98;;